Time;durP1;ratioP1;P1;durP2;ratioP2;P2;SDS_P1;SDS_P2;PMS_P1;PMS_P2;Temp;Humidity;BMP_temperature;BMP_pressure;BME280_temperature;BME280_humidity;BME280_pressure;Samples;Min_cycle;Max_cycle;Signal;HPM_P1;HPM_P2
2021/01/14 00:00:59;;;;;;;0.20;0.20;;;;;;;4.18;96.40;100067.81;5014419;28;20449;-52
2021/01/14 00:03:25;;;;;;;0.20;0.10;;;;;;;4.12;96.68;100071.38;5014327;28;20453;-52
2021/01/14 00:06:07;;;;;;;0.20;0.10;;;;;;;4.20;97.29;100073.94;5001038;28;20913;-52
2021/01/14 00:08:34;;;;;;;0.20;0.10;;;;;;;4.14;97.54;100084.53;5013675;28;20448;-52
2021/01/14 00:11:00;;;;;;;0.20;0.10;;;;;;;4.24;96.65;100086.19;5013513;28;20448;-52
2021/01/14 00:13:26;;;;;;;0.20;0.10;;;;;;;4.24;97.12;100077.41;5013997;28;20448;-52
2021/01/14 00:15:52;;;;;;;0.20;0.10;;;;;;;4.21;96.88;100077.44;5014060;28;20468;-51
2021/01/14 00:18:18;;;;;;;0.20;0.10;;;;;;;4.34;96.85;100074.72;5014132;28;20456;-52
2021/01/14 00:20:44;;;;;;;0.20;0.10;;;;;;;4.30;96.80;100087.91;5014619;28;20459;-52
2021/01/14 00:23:11;;;;;;;0.30;0.10;;;;;;;4.35;97.29;100081.72;5014028;28;20453;-51
2021/01/14 00:25:37;;;;;;;0.20;0.10;;;;;;;4.37;96.54;100093.13;5013683;28;20480;-52
2021/01/14 00:28:03;;;;;;;0.20;0.20;;;;;;;4.27;96.67;100106.38;5014178;28;20496;-52
2021/01/14 00:30:31;;;;;;;0.20;0.10;;;;;;;4.32;97.18;100089.66;5013739;28;20452;-52
2021/01/14 00:32:59;;;;;;;0.20;0.10;;;;;;;4.34;96.66;100101.03;5013263;28;20480;-52
2021/01/14 00:35:29;;;;;;;0.20;0.10;;;;;;;4.32;96.91;100104.56;5013619;28;20453;-52
2021/01/14 00:37:55;;;;;;;0.20;0.20;;;;;;;4.32;97.03;100097.53;5015138;28;20452;-51
2021/01/14 00:40:30;;;;;;;0.20;0.10;;;;;;;4.32;97.54;100092.28;5013878;28;20487;-51
2021/01/14 00:43:04;;;;;;;0.20;0.10;;;;;;;4.28;97.90;100098.47;5014274;28;20462;-52
2021/01/14 00:45:32;;;;;;;0.20;0.10;;;;;;;4.40;98.15;100111.53;5014186;28;20458;-52
2021/01/14 00:47:59;;;;;;;0.20;0.20;;;;;;;4.29;98.80;100107.22;5013479;28;20492;-51
2021/01/14 00:50:26;;;;;;;0.20;0.20;;;;;;;4.33;99.13;100096.66;5013579;28;20833;-52
2021/01/14 00:52:53;;;;;;;0.20;0.20;;;;;;;4.31;98.86;100101.06;5012700;28;20449;-52
2021/01/14 00:55:20;;;;;;;0.20;0.10;;;;;;;4.28;100.00;100102.84;5013447;28;20461;-52
2021/01/14 00:57:46;;;;;;;0.20;0.10;;;;;;;4.50;98.95;100111.47;5013572;28;20531;-52
2021/01/14 01:00:19;;;;;;;0.20;0.10;;;;;;;4.40;99.65;100111.53;5013002;28;20457;-51
2021/01/14 01:02:46;;;;;;;0.20;0.10;;;;;;;4.37;100.00;100114.16;5013044;28;20484;-51
2021/01/14 01:05:14;;;;;;;0.20;0.10;;;;;;;4.58;99.58;100123.69;5012748;28;20453;-51
2021/01/14 01:07:47;;;;;;;0.20;0.10;;;;;;;4.41;100.00;100125.56;5012288;28;20496;-52
2021/01/14 01:10:14;;;;;;;0.20;0.20;;;;;;;4.51;100.00;100124.59;5013405;28;20445;-53
2021/01/14 01:12:40;;;;;;;0.20;0.10;;;;;;;4.31;100.00;100119.47;5008870;28;20453;-52
2021/01/14 01:15:06;;;;;;;0.20;0.10;;;;;;;4.26;100.00;100123.91;5012982;28;20548;-52
2021/01/14 01:17:33;;;;;;;0.30;0.20;;;;;;;4.21;100.00;100128.31;5033852;23;21015;-50
2021/01/14 01:19:59;;;;;;;0.20;0.10;;;;;;;4.10;100.00;100138.00;5011416;28;20460;-49
2021/01/14 01:22:26;;;;;;;0.20;0.10;;;;;;;4.21;100.00;100141.44;5015920;28;20456;-50
2021/01/14 01:24:52;;;;;;;0.20;0.10;;;;;;;4.29;100.00;100137.03;5016512;28;20460;-50
2021/01/14 01:27:18;;;;;;;0.20;0.10;;;;;;;4.26;100.00;100133.56;5002883;28;20519;-50
2021/01/14 01:29:44;;;;;;;0.20;0.10;;;;;;;4.11;100.00;100142.38;5015817;28;20449;-51
2021/01/14 01:32:10;;;;;;;0.20;0.10;;;;;;;4.21;100.00;100146.72;5015192;28;20506;-51
2021/01/14 01:34:37;;;;;;;0.20;0.10;;;;;;;4.20;100.00;100162.50;5014610;28;20453;-51
2021/01/14 01:37:03;;;;;;;0.20;0.10;;;;;;;4.12;100.00;100155.53;5014725;28;20476;-51
2021/01/14 01:39:29;;;;;;;0.20;0.10;;;;;;;4.42;100.00;100167.66;5014892;28;20827;-52
2021/01/14 01:41:57;;;;;;;0.20;0.10;;;;;;;4.10;100.00;100170.44;5015168;28;20452;-51
2021/01/14 01:44:25;;;;;;;0.20;0.10;;;;;;;4.11;100.00;100171.31;5015201;28;20453;-51
2021/01/14 01:47:05;;;;;;;0.20;0.10;;;;;;;3.96;100.00;100177.50;5015111;28;20508;-51
2021/01/14 01:49:34;;;;;;;0.20;0.10;;;;;;;3.97;100.00;100175.75;5015029;28;20937;-50
2021/01/14 01:52:02;;;;;;;0.20;0.10;;;;;;;3.91;100.00;100170.53;5015270;28;20456;-51
2021/01/14 01:54:34;;;;;;;0.20;0.10;;;;;;;3.91;100.00;100173.16;5015629;28;20503;-52
2021/01/14 01:57:05;;;;;;;0.20;0.10;;;;;;;3.91;100.00;100189.81;5015071;28;20471;-51
2021/01/14 01:59:32;;;;;;;0.20;0.10;;;;;;;4.17;100.00;100179.19;5015014;28;20456;-51
2021/01/14 02:02:19;;;;;;;0.20;0.10;;;;;;;3.91;100.00;100183.66;5014806;28;20449;-51
2021/01/14 02:04:45;;;;;;;0.40;0.40;;;;;;;3.90;100.00;100174.91;5003472;28;20536;-50
2021/01/14 02:07:18;;;;;;;0.20;0.10;;;;;;;3.86;100.00;100174.06;5014856;28;20503;-51
2021/01/14 02:09:50;;;;;;;0.20;0.20;;;;;;;3.89;100.00;100174.91;5015166;28;20440;-50
2021/01/14 02:12:17;;;;;;;0.20;0.10;;;;;;;3.86;100.00;100174.06;5014631;28;20445;-51
2021/01/14 02:14:46;;;;;;;0.20;0.10;;;;;;;3.97;100.00;100167.84;5014945;28;20456;-51
2021/01/14 02:17:12;;;;;;;0.20;0.20;;;;;;;3.90;100.00;100167.03;5014807;28;20476;-50
2021/01/14 02:19:42;;;;;;;0.20;0.10;;;;;;;3.83;100.00;100171.41;5015310;28;20452;-51
2021/01/14 02:22:22;;;;;;;0.20;0.10;;;;;;;3.92;100.00;100188.91;5018313;28;20934;-49
2021/01/14 02:24:51;;;;;;;0.20;0.10;;;;;;;3.88;100.00;100173.16;5018380;28;20444;-51
2021/01/14 02:27:18;;;;;;;0.20;0.10;;;;;;;3.80;100.00;100186.31;5005770;28;20489;-51
2021/01/14 02:29:45;;;;;;;0.20;0.10;;;;;;;3.77;100.00;100181.09;5018070;28;20468;-50
2021/01/14 02:32:16;;;;;;;0.20;0.10;;;;;;;3.78;100.00;100186.34;5017799;28;20854;-51
2021/01/14 02:34:43;;;;;;;0.20;0.10;;;;;;;3.98;100.00;100191.53;5018903;28;20520;-51
2021/01/14 02:37:10;;;;;;;0.20;0.10;;;;;;;4.02;100.00;100185.38;5018151;28;20897;-50
2021/01/14 02:39:37;;;;;;;0.20;0.10;;;;;;;3.92;100.00;100191.53;5018476;28;20459;-50
2021/01/14 02:42:04;;;;;;;0.20;0.10;;;;;;;3.93;100.00;100182.78;5018534;28;20453;-50
2021/01/14 02:44:30;;;;;;;0.20;0.10;;;;;;;3.82;100.00;100190.69;5018390;28;20984;-50
2021/01/14 02:46:58;;;;;;;0.20;0.10;;;;;;;3.81;100.00;100195.97;5017816;28;20487;-50
2021/01/14 02:49:27;;;;;;;0.20;0.10;;;;;;;4.02;100.00;100189.78;5017967;28;20811;-50
2021/01/14 02:52:00;;;;;;;0.20;0.10;;;;;;;4.04;100.00;100199.41;5018050;28;20448;-51
2021/01/14 02:54:27;;;;;;;0.20;0.10;;;;;;;4.14;100.00;100203.75;5018195;28;20969;-50
2021/01/14 02:56:53;;;;;;;0.20;0.10;;;;;;;4.04;100.00;100209.03;5017530;28;20465;-50
2021/01/14 02:59:19;;;;;;;0.20;0.10;;;;;;;4.15;100.00;100204.63;5017903;28;20468;-50
2021/01/14 03:01:46;;;;;;;0.20;0.10;;;;;;;3.95;100.00;100217.81;5017204;28;20452;-49
2021/01/14 03:04:12;;;;;;;0.20;0.10;;;;;;;3.85;100.00;100230.16;5017695;28;20452;-50
2021/01/14 03:06:38;;;;;;;0.20;0.10;;;;;;;3.86;100.00;100226.63;5017373;28;20489;-50
2021/01/14 03:09:05;;;;;;;0.20;0.10;;;;;;;3.80;100.00;100231.00;5017962;28;20467;-51
2021/01/14 03:11:33;;;;;;;0.20;0.10;;;;;;;3.71;100.00;100221.41;5017894;28;20945;-51
2021/01/14 03:14:00;;;;;;;0.20;0.10;;;;;;;3.62;100.00;100234.56;5018008;28;20453;-50
2021/01/14 03:16:27;;;;;;;0.20;0.10;;;;;;;3.67;100.00;100240.66;5017105;28;20534;-50
2021/01/14 03:18:53;;;;;;;0.20;0.10;;;;;;;3.77;100.00;100242.41;5017420;28;20452;-51
2021/01/14 03:21:24;;;;;;;0.20;0.10;;;;;;;3.66;100.00;100246.81;5016484;28;20452;-50
2021/01/14 03:23:52;;;;;;;0.20;0.10;;;;;;;3.64;100.00;100243.31;5017544;28;20456;-51
2021/01/14 03:26:19;;;;;;;0.20;0.10;;;;;;;3.67;100.00;100242.44;5017269;28;20473;-51
2021/01/14 03:28:47;;;;;;;0.20;0.10;;;;;;;3.75;100.00;100252.06;5017174;28;20463;-50
2021/01/14 03:31:14;;;;;;;0.20;0.10;;;;;;;3.77;100.00;100246.81;5016949;28;20519;-50
2021/01/14 03:33:41;;;;;;;0.20;0.20;;;;;;;3.66;100.00;100236.28;5016343;28;20957;-50
2021/01/14 03:36:09;;;;;;;0.20;0.10;;;;;;;3.61;100.00;100237.19;5016620;28;21000;-51
2021/01/14 03:38:36;;;;;;;0.20;0.10;;;;;;;3.71;100.00;100257.34;5017182;28;20506;-51
2021/01/14 03:41:22;;;;;;;0.20;0.10;;;;;;;3.76;100.00;100260.81;5016652;28;20453;-51
2021/01/14 03:43:48;;;;;;;0.20;0.10;;;;;;;3.90;100.00;100258.16;5016912;28;20460;-50
2021/01/14 03:46:17;;;;;;;0.20;0.10;;;;;;;3.65;100.00;100273.97;5016598;28;21164;-51
2021/01/14 03:48:45;;;;;;;0.20;0.10;;;;;;;3.80;100.00;100265.19;5010067;28;20460;-50
2021/01/14 03:51:20;;;;;;;0.20;0.10;;;;;;;3.73;100.00;100259.06;5016499;28;20456;-50
2021/01/14 03:53:50;;;;;;;0.20;0.10;;;;;;;3.58;100.00;100248.59;5016892;28;20966;-51
2021/01/14 03:56:17;;;;;;;0.20;0.10;;;;;;;3.60;100.00;100275.75;5017038;28;20912;-50
2021/01/14 03:58:44;;;;;;;0.20;0.10;;;;;;;3.49;100.00;100267.84;5016848;28;20465;-50
2021/01/14 04:01:10;;;;;;;0.20;0.10;;;;;;;3.53;100.00;100281.84;5016928;28;20536;-51
2021/01/14 04:03:44;;;;;;;0.20;0.10;;;;;;;3.58;100.00;100274.88;5017002;28;20460;-50
2021/01/14 04:06:11;;;;;;;0.20;0.10;;;;;;;3.55;100.00;100275.72;5003569;28;20555;-50
2021/01/14 04:08:38;;;;;;;0.20;0.10;;;;;;;3.50;100.00;100277.47;5016102;28;20452;-51
2021/01/14 04:11:04;;;;;;;0.20;0.10;;;;;;;3.47;100.00;100259.09;5016804;28;20507;-50
2021/01/14 04:13:31;;;;;;;0.20;0.10;;;;;;;3.46;100.00;100261.72;5017161;28;20448;-50
2021/01/14 04:15:58;;;;;;;0.20;0.10;;;;;;;3.57;100.00;100270.50;5015882;28;20515;-51
2021/01/14 04:18:24;;;;;;;0.20;0.10;;;;;;;3.59;100.00;100270.50;5016478;28;20440;-51
2021/01/14 04:20:51;;;;;;;0.20;0.10;;;;;;;3.71;100.00;100278.38;5016527;28;20882;-50
2021/01/14 04:23:18;;;;;;;0.20;0.10;;;;;;;3.53;100.00;100285.34;5016803;28;20452;-51
2021/01/14 04:25:44;;;;;;;0.20;0.10;;;;;;;3.78;100.00;100273.09;5015997;28;20452;-50
2021/01/14 04:28:10;;;;;;;0.20;0.10;;;;;;;3.64;100.00;100276.59;5016394;28;20492;-50
2021/01/14 04:30:37;;;;;;;0.20;0.10;;;;;;;3.64;100.00;100287.13;5017151;28;20506;-50
2021/01/14 04:33:12;;;;;;;0.20;0.10;;;;;;;3.56;100.00;100289.72;5017292;28;20890;-51
2021/01/14 04:35:52;;;;;;;0.30;0.20;;;;;;;3.67;99.71;100290.59;5017110;28;20933;-50
2021/01/14 04:38:19;;;;;;;0.20;0.10;;;;;;;3.46;98.91;100291.50;5016898;28;20449;-51
2021/01/14 04:40:53;;;;;;;0.20;0.10;;;;;;;3.51;98.73;100291.50;5016905;28;20452;-51
2021/01/14 04:43:22;;;;;;;0.20;0.10;;;;;;;3.52;97.52;100304.63;5016392;28;20464;-50
2021/01/14 04:45:55;;;;;;;0.20;0.10;;;;;;;3.34;96.55;100312.50;5017289;28;20498;-48
2021/01/14 04:48:22;;;;;;;0.20;0.10;;;;;;;3.48;97.02;100304.63;5005068;28;20499;-48
2021/01/14 04:50:50;;;;;;;0.20;0.10;;;;;;;3.54;97.44;100288.84;5017702;28;20459;-48
2021/01/14 04:53:19;;;;;;;0.20;0.20;;;;;;;3.62;97.16;100295.00;5016926;28;20918;-48
2021/01/14 04:55:48;;;;;;;0.20;0.10;;;;;;;3.51;96.70;100297.63;5015963;28;20535;-48
2021/01/14 04:58:19;;;;;;;0.20;0.10;;;;;;;3.64;96.02;100288.00;5017367;28;20809;-48
2021/01/14 05:00:47;;;;;;;0.20;0.10;;;;;;;3.62;95.92;100288.88;5016727;28;20452;-48
2021/01/14 05:03:20;;;;;;;0.20;0.10;;;;;;;3.53;95.58;100287.97;5017902;28;20457;-49
2021/01/14 05:05:48;;;;;;;0.20;0.10;;;;;;;3.51;96.38;100289.75;5018460;28;20857;-49
2021/01/14 05:08:15;;;;;;;0.20;0.10;;;;;;;3.51;95.52;100292.38;5017265;28;20492;-49
2021/01/14 05:10:43;;;;;;;0.20;0.10;;;;;;;3.41;96.10;100302.88;5017913;28;20547;-48
2021/01/14 05:13:10;;;;;;;0.20;0.10;;;;;;;3.34;96.06;100293.25;5017896;28;21019;-48
2021/01/14 05:15:38;;;;;;;0.20;0.10;;;;;;;3.46;94.95;100293.25;5017358;28;20798;-48
2021/01/14 05:18:05;;;;;;;0.20;0.10;;;;;;;3.37;95.24;100299.38;5018158;28;20448;-48
2021/01/14 05:20:31;;;;;;;0.20;0.10;;;;;;;3.54;95.68;100297.63;5016879;28;20563;-48
2021/01/14 05:23:00;;;;;;;0.20;0.10;;;;;;;3.50;95.64;100295.88;5016779;28;20871;-48
2021/01/14 05:25:27;;;;;;;0.20;0.10;;;;;;;3.47;96.11;100295.00;5015492;28;20460;-49
2021/01/14 05:27:54;;;;;;;0.20;0.10;;;;;;;3.57;95.75;100302.03;5015780;28;20591;-49
2021/01/14 05:30:22;;;;;;;0.20;0.10;;;;;;;3.49;95.83;100298.50;5015918;28;20453;-49
2021/01/14 05:32:48;;;;;;;0.20;0.10;;;;;;;3.21;94.28;100289.72;5016227;28;20474;-49
2021/01/14 05:35:35;;;;;;;0.20;0.10;;;;;;;3.33;90.67;100297.63;5016119;28;20960;-49
2021/01/14 05:38:03;;;;;;;0.20;0.10;;;;;;;3.32;89.32;100297.63;5016507;28;20440;-49
2021/01/14 05:40:30;;;;;;;0.20;0.10;;;;;;;3.23;89.59;100309.88;5016428;28;20464;-49
2021/01/14 05:43:05;;;;;;;0.20;0.10;;;;;;;3.26;90.12;100315.13;5015750;28;20539;-49
2021/01/14 05:45:35;;;;;;;0.20;0.10;;;;;;;3.03;91.63;100308.97;5015753;28;20512;-48
2021/01/14 05:48:09;;;;;;;0.20;0.10;;;;;;;3.16;89.94;100321.25;5016074;28;20563;-49
2021/01/14 05:50:44;;;;;;;0.20;0.13;;;;;;;3.14;89.69;100332.59;5015115;28;20456;-49
2021/01/14 05:53:17;;;;;;;0.20;0.10;;;;;;;3.11;90.51;100341.34;5015679;28;20444;-49
2021/01/14 05:55:51;;;;;;;0.20;0.10;;;;;;;3.03;91.58;100356.22;5019112;28;20449;-49
2021/01/14 05:58:19;;;;;;;0.20;0.10;;;;;;;3.00;91.40;100358.81;5019364;28;20511;-49
2021/01/14 06:00:46;;;;;;;0.20;0.10;;;;;;;3.12;91.49;100345.72;5019711;28;20464;-49
2021/01/14 06:03:24;;;;;;;0.20;0.10;;;;;;;3.19;92.41;100358.03;5019806;28;20452;-49
2021/01/14 06:05:52;;;;;;;0.20;0.10;;;;;;;3.29;91.16;100366.81;5018548;28;20472;-49
2021/01/14 06:08:26;;;;;;;0.20;0.10;;;;;;;3.15;91.79;100371.13;5019634;28;20492;-49
2021/01/14 06:10:54;;;;;;;0.20;0.10;;;;;;;3.30;91.88;100371.19;5019432;28;20467;-48
2021/01/14 06:13:39;;;;;;;0.20;0.10;;;;;;;3.24;92.11;100377.28;5019070;28;20452;-49
2021/01/14 06:16:07;;;;;;;0.20;0.10;;;;;;;3.18;92.47;100369.41;5007586;28;20475;-49
2021/01/14 06:18:34;;;;;;;0.20;0.10;;;;;;;3.22;92.88;100370.28;5018848;28;20774;-49
2021/01/14 06:21:00;;;;;;;0.20;0.10;;;;;;;3.27;92.66;100371.16;5019077;28;20456;-48
2021/01/14 06:23:27;;;;;;;0.20;0.10;;;;;;;3.33;91.69;100372.94;5018591;28;20530;-49
2021/01/14 06:25:55;;;;;;;0.20;0.10;;;;;;;3.33;91.75;100379.06;5019078;28;20468;-49
2021/01/14 06:28:33;;;;;;;0.20;0.10;;;;;;;3.30;92.69;100379.06;5018509;28;20875;-48
2021/01/14 06:31:01;;;;;;;0.20;0.10;;;;;;;3.21;92.80;100387.78;5018508;28;20448;-50
2021/01/14 06:33:32;;;;;;;0.20;0.10;;;;;;;3.28;90.61;100381.66;5019056;28;20447;-49
2021/01/14 06:36:10;;;;;;;0.20;0.10;;;;;;;3.11;91.32;100391.25;5018267;28;21009;-49
2021/01/14 06:38:42;;;;;;;0.20;0.10;;;;;;;3.04;92.25;100391.25;5018626;28;20436;-48
2021/01/14 06:41:17;;;;;;;0.20;0.10;;;;;;;3.32;92.39;100394.81;5017104;28;20448;-49
2021/01/14 06:43:46;;;;;;;0.20;0.20;;;;;;;3.21;92.21;100395.66;5019800;28;20459;-48
2021/01/14 06:46:19;;;;;;;0.20;0.10;;;;;;;3.12;91.41;100406.13;5019054;28;20505;-49
2021/01/14 06:49:14;;;;;;;0.20;0.10;;;;;;;3.33;91.11;100407.09;5019091;28;20502;-48
2021/01/14 06:51:56;;;;;;;0.20;0.10;;;;;;;3.13;91.76;100421.00;5007455;28;20449;-49
2021/01/14 06:54:27;;;;;;;0.20;0.10;;;;;;;3.13;92.62;100423.63;5019374;28;20441;-51
2021/01/14 06:57:15;;;;;;;0.20;0.10;;;;;;;3.23;90.62;100425.44;5017754;28;20465;-49
2021/01/14 06:59:42;;;;;;;0.20;0.10;;;;;;;3.22;90.71;100426.31;5014216;28;20901;-48
2021/01/14 07:02:30;;;;;;;0.20;0.10;;;;;;;3.19;92.04;100428.94;5018180;28;20460;-49
2021/01/14 07:05:06;;;;;;;0.20;0.10;;;;;;;3.25;90.81;100421.06;5017060;28;20468;-49
2021/01/14 07:07:36;;;;;;;0.20;0.10;;;;;;;3.12;91.41;100407.88;5016469;28;20492;-49
2021/01/14 07:10:10;;;;;;;0.20;0.10;;;;;;;3.13;90.02;100414.88;5018858;28;20456;-50
2021/01/14 07:12:40;;;;;;;0.20;0.10;;;;;;;3.13;89.29;100410.50;4997546;28;20460;-49
2021/01/14 07:15:09;;;;;;;0.20;0.10;;;;;;;3.03;89.68;100398.25;5016644;28;20949;-49
2021/01/14 07:17:42;;;;;;;0.20;0.10;;;;;;;2.93;90.52;100397.31;5049430;23;20502;-51
2021/01/14 07:20:17;;;;;;;0.20;0.10;;;;;;;3.05;90.89;100399.13;5033073;28;20451;-52
2021/01/14 07:23:03;;;;;;;0.20;0.10;;;;;;;2.92;91.81;100403.44;5016571;28;20444;-52
2021/01/14 07:25:30;;;;;;;0.20;0.10;;;;;;;2.82;92.26;100413.88;5029509;28;20455;-51
2021/01/14 07:27:56;;;;;;;0.20;0.10;;;;;;;2.78;92.88;100417.38;5016155;28;20862;-51
2021/01/14 07:30:24;;;;;;;0.20;0.10;;;;;;;2.72;93.90;100410.34;5011106;28;20817;-51
2021/01/14 07:33:04;;;;;;;0.20;0.10;;;;;;;2.94;94.74;100414.81;5008854;28;20453;-51
2021/01/14 07:35:37;;;;;;;0.20;0.10;;;;;;;2.84;95.02;100418.28;5015702;28;20448;-51
2021/01/14 07:38:04;;;;;;;0.20;0.10;;;;;;;2.71;95.01;100420.81;5013284;28;20460;-50
2021/01/14 07:40:32;;;;;;;0.20;0.10;;;;;;;2.52;95.83;100436.47;5004951;28;20459;-51
2021/01/14 07:42:59;;;;;;;0.20;0.10;;;;;;;2.54;96.36;100436.47;4999888;28;20458;-51
2021/01/14 07:45:31;;;;;;;0.20;0.10;;;;;;;2.52;96.99;100433.84;5005567;28;20445;-51
2021/01/14 07:48:19;;;;;;;0.20;0.10;;;;;;;2.56;95.66;100435.63;5014644;28;21088;-51
2021/01/14 07:50:50;;;;;;;0.20;0.10;;;;;;;2.65;95.99;100437.44;5001466;28;20458;-51
2021/01/14 07:53:17;;;;;;;0.20;0.10;;;;;;;2.71;95.18;100449.69;5009753;28;20932;-51
2021/01/14 07:55:43;;;;;;;0.20;0.10;;;;;;;2.89;94.15;100444.56;5018972;28;20589;-51
2021/01/14 07:58:22;;;;;;;0.20;0.10;;;;;;;2.99;93.89;100448.97;4997230;28;20480;-51
2021/01/14 08:01:03;;;;;;;0.20;0.10;;;;;;;3.12;94.05;100453.41;5012389;28;20448;-51
2021/01/14 08:03:30;;;;;;;0.20;0.10;;;;;;;2.71;96.55;100468.06;5005854;28;21036;-51
2021/01/14 08:05:58;;;;;;;0.20;0.10;;;;;;;2.66;96.41;100465.41;5013994;28;20449;-51
2021/01/14 08:08:28;;;;;;;0.20;0.10;;;;;;;2.66;97.00;100463.66;5002408;28;20540;-51
2021/01/14 08:11:09;;;;;;;0.20;0.10;;;;;;;2.53;97.15;100468.81;5013476;28;20449;-51
2021/01/14 08:14:02;;;;;;;0.20;0.10;;;;;;;2.48;98.67;100467.94;5001509;28;20456;-51
2021/01/14 08:16:31;;;;;;;0.20;0.10;;;;;;;2.49;98.53;100469.69;5013933;28;20476;-51
2021/01/14 08:19:21;;;;;;;0.20;0.10;;;;;;;2.27;99.40;100476.50;5008087;28;20492;-51
2021/01/14 08:21:58;;;;;;;0.20;0.10;;;;;;;2.17;100.00;100485.16;4996608;28;20453;-51
2021/01/14 08:24:57;;;;;;;0.20;0.10;;;;;;;2.19;99.30;100486.03;5014579;28;20471;-51
2021/01/14 08:27:35;;;;;;;0.20;0.10;;;;;;;2.35;99.07;100491.44;5002631;28;20493;-51
2021/01/14 08:30:12;;;;;;;0.20;0.20;;;;;;;2.37;99.72;100494.94;5000970;28;20448;-51
2021/01/14 08:33:06;;;;;;;0.20;0.10;;;;;;;2.61;98.74;100489.00;5013118;28;20502;-51
2021/01/14 08:35:34;;;;;;;0.20;0.10;;;;;;;2.78;97.80;100504.00;5002830;28;20445;-51
2021/01/14 08:38:12;;;;;;;0.20;0.20;;;;;;;2.47;98.93;100514.28;5001843;28;20558;-50
2021/01/14 08:40:40;;;;;;;0.20;0.10;;;;;;;2.27;100.00;100515.84;5014005;28;20450;-51
2021/01/14 08:43:14;;;;;;;0.20;0.10;;;;;;;2.07;100.00;100518.28;5001070;28;20963;-50
2021/01/14 08:45:48;;;;;;;0.20;0.10;;;;;;;2.17;100.00;100516.63;5014169;28;20440;-50
2021/01/14 08:48:23;;;;;;;0.20;0.13;;;;;;;2.27;100.00;100515.84;5008291;28;20501;-51
2021/01/14 08:50:55;;;;;;;0.20;0.10;;;;;;;2.07;100.00;100516.56;5010785;28;20459;-50
2021/01/14 08:53:29;;;;;;;0.20;0.10;;;;;;;2.12;100.00;100521.81;5021519;28;20450;-51
2021/01/14 08:56:03;;;;;;;0.20;0.10;;;;;;;2.11;100.00;100527.06;5015647;28;20445;-50
2021/01/14 08:58:38;;;;;;;0.20;0.10;;;;;;;2.12;100.00;100534.06;5004821;28;20464;-51
2021/01/14 09:01:09;;;;;;;0.20;0.10;;;;;;;2.18;100.00;100528.84;5007709;28;21021;-52
2021/01/14 09:03:36;;;;;;;0.20;0.10;;;;;;;2.34;100.00;100521.16;5006475;28;20453;-51
2021/01/14 09:06:03;;;;;;;0.20;0.10;;;;;;;2.40;100.00;100519.44;5014074;28;20452;-51
2021/01/14 09:08:29;;;;;;;0.20;0.20;;;;;;;2.40;100.00;100528.19;5001324;28;20497;-51
2021/01/14 09:10:56;;;;;;;0.20;0.10;;;;;;;2.49;100.00;100536.16;5013050;28;20456;-50
2021/01/14 09:13:25;;;;;;;0.20;0.10;;;;;;;2.38;100.00;100537.78;5001156;28;20454;-51
2021/01/14 09:15:53;;;;;;;0.20;0.10;;;;;;;2.49;100.00;100540.50;5000440;28;20452;-52
2021/01/14 09:18:34;;;;;;;0.20;0.10;;;;;;;2.67;99.17;100532.78;5013579;28;20485;-51
2021/01/14 09:21:00;;;;;;;0.20;0.10;;;;;;;2.85;98.10;100524.13;5002124;28;20498;-51
2021/01/14 09:23:32;;;;;;;0.20;0.10;;;;;;;2.88;97.35;100516.31;5000379;28;20450;-52
2021/01/14 09:26:01;;;;;;;0.20;0.10;;;;;;;2.96;95.77;100531.22;5013283;28;20444;-51
2021/01/14 09:28:29;;;;;;;0.20;0.10;;;;;;;3.08;94.28;100543.53;5009818;28;20863;-52
2021/01/14 09:31:09;;;;;;;0.20;0.10;;;;;;;3.06;94.43;100542.66;5003564;28;20452;-52
2021/01/14 09:33:38;;;;;;;0.20;0.10;;;;;;;3.05;94.56;100556.66;5013102;28;20444;-51
2021/01/14 09:36:19;;;;;;;0.20;0.20;;;;;;;3.08;93.66;100561.94;5001738;28;20457;-51
2021/01/14 09:38:57;;;;;;;0.20;0.10;;;;;;;3.18;94.15;100561.13;5001479;28;20448;-51
2021/01/14 09:41:31;;;;;;;0.20;0.10;;;;;;;3.22;94.38;100568.13;5000170;28;20448;-51
2021/01/14 09:44:03;;;;;;;0.20;0.10;;;;;;;3.23;95.02;100569.88;5003420;28;20459;-51
2021/01/14 09:46:36;;;;;;;0.20;0.10;;;;;;;3.17;93.91;100575.13;5012691;28;20981;-51
2021/01/14 09:49:05;;;;;;;0.20;0.10;;;;;;;3.17;93.61;100584.75;5001783;28;20497;-52
2021/01/14 09:51:33;;;;;;;0.20;0.10;;;;;;;3.21;93.62;100586.50;5012696;28;20534;-51
2021/01/14 09:54:00;;;;;;;0.20;0.10;;;;;;;3.17;92.57;100592.63;5026135;28;20444;-52
2021/01/14 09:56:29;;;;;;;0.20;0.10;;;;;;;3.20;92.13;100584.75;5006088;28;21088;-52
2021/01/14 09:59:02;;;;;;;0.20;0.10;;;;;;;3.37;92.17;100597.97;5006643;28;20461;-51
2021/01/14 10:01:35;;;;;;;0.20;0.10;;;;;;;3.30;91.48;100598.84;5004909;28;20460;-51
2021/01/14 10:04:05;;;;;;;0.20;0.10;;;;;;;3.36;92.31;100602.38;5008505;28;20444;-52
2021/01/14 10:06:38;;;;;;;0.20;0.10;;;;;;;3.43;91.03;100609.41;5012827;28;20479;-52
2021/01/14 10:09:05;;;;;;;0.20;0.10;;;;;;;3.41;91.40;100615.50;5008846;28;20560;-51
2021/01/14 10:11:33;;;;;;;0.20;0.10;;;;;;;3.40;90.80;100613.75;5003197;28;20456;-51
2021/01/14 10:14:00;;;;;;;0.20;0.13;;;;;;;3.47;89.92;100615.56;4995637;28;20480;-51
2021/01/14 10:16:28;;;;;;;0.20;0.10;;;;;;;3.43;90.35;100616.44;5004403;28;20583;-52
2021/01/14 10:19:08;;;;;;;0.20;0.10;;;;;;;3.39;91.30;100617.25;5013460;28;20445;-52
2021/01/14 10:21:36;;;;;;;0.20;0.10;;;;;;;3.32;90.78;100611.09;5000030;28;20441;-53
2021/01/14 10:24:03;;;;;;;0.20;0.10;;;;;;;3.39;91.48;100612.00;4999855;28;20568;-51
2021/01/14 10:26:30;;;;;;;0.20;0.10;;;;;;;3.37;90.73;100619.88;5011024;28;20475;-51
2021/01/14 10:28:56;;;;;;;0.20;0.10;;;;;;;3.53;91.37;100626.97;5000041;28;21020;-51
2021/01/14 10:31:32;;;;;;;0.20;0.10;;;;;;;3.60;89.53;100620.00;5012481;28;20457;-51
2021/01/14 10:33:59;;;;;;;0.20;0.10;;;;;;;3.58;89.87;100623.50;5012639;28;20480;-51
2021/01/14 10:36:42;;;;;;;0.20;0.10;;;;;;;3.46;90.18;100622.56;5010798;28;20474;-51
2021/01/14 10:39:09;;;;;;;0.20;0.10;;;;;;;3.33;91.36;100620.75;5004169;28;20440;-51
2021/01/14 10:41:35;;;;;;;0.20;0.10;;;;;;;3.24;90.90;100626.81;5008258;28;20461;-51
2021/01/14 10:44:05;;;;;;;0.20;0.10;;;;;;;3.23;91.69;100626.81;5006310;28;20822;-52
2021/01/14 10:46:32;;;;;;;0.20;0.10;;;;;;;3.38;91.15;100624.25;5015997;28;21060;-51
2021/01/14 10:49:10;;;;;;;0.20;0.13;;;;;;;3.30;91.33;100625.09;5005153;28;20497;-52
2021/01/14 10:51:39;;;;;;;0.20;0.10;;;;;;;3.27;91.87;100618.06;5003746;28;20451;-51
2021/01/14 10:54:05;;;;;;;0.20;0.10;;;;;;;3.32;91.18;100613.72;5029668;28;20949;-51
2021/01/14 10:56:31;;;;;;;0.20;0.10;;;;;;;3.20;90.50;100625.03;5008762;28;20470;-51
2021/01/14 10:59:01;;;;;;;0.20;0.10;;;;;;;2.97;91.14;100623.97;5010000;28;21025;-51
2021/01/14 11:01:28;;;;;;;0.20;0.10;;;;;;;3.25;92.04;100618.06;5008086;28;20452;-51
2021/01/14 11:04:05;;;;;;;0.20;0.10;;;;;;;3.23;91.54;100617.16;5010844;28;20451;-51
2021/01/14 11:06:36;;;;;;;0.20;0.10;;;;;;;3.20;91.46;100606.66;5014936;28;20488;-52
2021/01/14 11:09:06;;;;;;;0.20;0.10;;;;;;;3.39;91.38;100605.00;4998102;28;20493;-51
2021/01/14 11:11:34;;;;;;;0.20;0.10;;;;;;;3.40;90.65;100605.88;5007218;28;20448;-52
2021/01/14 11:14:01;;;;;;;0.20;0.10;;;;;;;3.39;89.82;100612.00;4997272;28;20902;-52
2021/01/14 11:16:27;;;;;;;0.20;0.10;;;;;;;3.36;89.90;100599.72;5005829;28;20487;-51
2021/01/14 11:18:57;;;;;;;0.20;0.10;;;;;;;3.13;90.54;100593.44;5015848;28;20444;-51
2021/01/14 11:21:34;;;;;;;0.20;0.10;;;;;;;3.21;91.00;100607.53;5015724;28;20478;-51
2021/01/14 11:24:01;;;;;;;0.20;0.10;;;;;;;3.23;90.33;100603.16;5002307;28;20526;-51
2021/01/14 11:26:28;;;;;;;0.20;0.10;;;;;;;3.18;90.97;100608.41;5015057;28;20468;-51
2021/01/14 11:28:55;;;;;;;0.20;0.10;;;;;;;3.21;90.13;100612.78;5009483;28;20854;-51
2021/01/14 11:31:26;;;;;;;1.07;1.07;;;;;;;3.18;90.73;100597.88;5008701;28;20448;-51
2021/01/14 11:33:53;;;;;;;0.20;0.10;;;;;;;3.18;89.54;100590.00;5015647;28;20456;-51
2021/01/14 11:36:21;;;;;;;0.20;0.10;;;;;;;3.16;89.97;100598.75;5014477;28;20869;-52
2021/01/14 11:38:50;;;;;;;0.20;0.10;;;;;;;3.28;89.14;100591.78;5002913;28;20453;-52
2021/01/14 11:41:21;;;;;;;0.20;0.10;;;;;;;3.10;89.83;100596.94;5013601;28;20929;-51
2021/01/14 11:43:48;;;;;;;0.20;0.10;;;;;;;3.37;89.61;100592.72;5004315;28;20452;-51
2021/01/14 11:46:16;;;;;;;0.20;0.10;;;;;;;3.40;88.74;100591.00;5015145;28;20464;-51